Time;durP1;ratioP1;P1;durP2;ratioP2;P2;SDS_P1;SDS_P2;PMS_P1;PMS_P2;Temp;Humidity;BMP_temperature;BMP_pressure;BME280_temperature;BME280_humidity;BME280_pressure;Samples;Min_cycle;Max_cycle;Signal;HPM_P1;HPM_P2
2022/02/08 00:00:49;;;;;;;;;;;;;;;0.72;100.00;98349.55;1794864;80;20485;-72
2022/02/08 00:03:11;;;;;;;;;;;;;;;0.75;100.00;98352.23;1763076;80;21176;-73
2022/02/08 00:05:37;;;;;;;;;;;;;;;0.68;100.00;98359.30;1796009;80;20435;-73
2022/02/08 00:08:04;;;;;;;;;;;;;;;0.63;100.00;98354.73;1796122;80;20112;-73
2022/02/08 00:10:32;;;;;;;;;;;;;;;0.64;100.00;98355.55;1796119;80;20095;-71
2022/02/08 00:12:58;;;;;;;;;;;;;;;0.63;100.00;98354.73;1796229;80;20096;-71
2022/02/08 00:15:25;;;;;;;;;;;;;;;0.62;100.00;98360.42;1763207;80;21142;-71
2022/02/08 00:17:52;;;;;;;;;;;;;;;0.60;100.00;98366.10;1796244;80;20438;-71
2022/02/08 00:20:18;;;;;;;;;;;;;;;0.57;100.00;98369.39;1763184;80;20419;-72
2022/02/08 00:22:44;;;;;;;;;;;;;;;0.55;100.00;98366.70;1796253;80;20072;-72
2022/02/08 00:25:11;;;;;;;;;;;;;;;0.53;100.00;98376.44;1796530;79;20116;-71
2022/02/08 00:27:38;;;;;;;;;;;;;;;0.54;100.00;98377.24;1792230;80;21139;-71
2022/02/08 00:30:05;;;;;;;;;;;;;;;0.54;100.00;98378.05;1775776;81;20424;-71
2022/02/08 00:32:33;;;;;;;;;;;;;;;0.54;100.00;98383.45;1775917;81;20148;-71
2022/02/08 00:34:59;;;;;;;;;;;;;;;0.54;100.00;98378.59;1775697;79;20113;-71
2022/02/08 00:37:25;;;;;;;;;;;;;;;0.55;100.00;98384.26;1775905;81;20117;-70
2022/02/08 00:39:52;;;;;;;;;;;;;;;0.54;100.00;98387.50;1775735;81;21117;-70
2022/02/08 00:42:20;;;;;;;;;;;;;;;0.53;100.00;98398.04;1754117;81;20395;-70
2022/02/08 00:44:53;;;;;;;;;;;;;;;0.52;100.00;98388.33;1775891;80;20124;-70
2022/02/08 00:49:46;;;;;;;;;;;;;;;0.50;100.00;98405.34;1776151;81;20093;-71
2022/02/08 00:52:16;;;;;;;;;;;;;;;0.48;100.00;98406.16;1775777;81;21141;-71
2022/02/08 00:54:47;;;;;;;;;;;;;;;0.48;100.00;98414.27;1775788;81;20159;-71
2022/02/08 00:57:14;;;;;;;;;;;;;;;0.49;100.00;98414.53;1770205;81;20097;-71
2022/02/08 00:59:41;;;;;;;;;;;;;;;0.48;100.00;98416.97;1769471;80;20782;-71
2022/02/08 01:02:08;;;;;;;;;;;;;;;0.47;100.00;98417.24;1769528;80;20133;-71
2022/02/08 01:04:35;;;;;;;;;;;;;;;0.47;100.00;98422.10;1748030;81;21174;-71
2022/02/08 01:07:04;;;;;;;;;;;;;;;0.44;100.00;98426.70;1769088;80;20199;-71
2022/02/08 01:09:52;;;;;;;;;;;;;;;0.42;100.00;98424.02;1769674;80;20416;-71
2022/02/08 01:12:14;;;;;;;;;;;;;;;0.40;100.00;98435.09;1747635;81;20105;-71
2022/02/08 01:14:43;;;;;;;;;;;;;;;0.40;100.00;98424.29;1769439;80;20129;-71
2022/02/08 01:17:10;;;;;;;;;;;;;;;0.39;100.00;98432.13;1765098;80;21234;-72
2022/02/08 01:19:43;;;;;;;;;;;;;;;0.38;100.00;98431.05;1781291;80;20156;-72
2022/02/08 01:22:05;;;;;;;;;;;;;;;0.37;100.00;98435.64;1778225;80;20204;-70
2022/02/08 01:24:32;;;;;;;;;;;;;;;0.39;100.00;98437.52;1782125;80;20128;-69
2022/02/08 01:27:04;;;;;;;;;;;;;;;0.36;100.00;98438.08;1781998;80;20116;-70
2022/02/08 01:37:25;;;;;;;;;;;;;;;0.32;100.00;98437.02;1779156;78;20104;-70
2022/02/08 01:39:59;;;;;;;;;;;;;;;0.31;100.00;98436.74;1821026;78;20086;-70
2022/02/08 01:42:28;;;;;;;;;;;;;;;0.31;100.00;98434.85;1820459;78;21129;-71
2022/02/08 01:45:02;;;;;;;;;;;;;;;0.29;100.00;98441.61;1821652;78;20114;-70
2022/02/08 01:48:10;;;;;;;;;;;;;;;0.30;100.00;98441.34;1820437;78;20397;-70
2022/02/08 01:52:26;;;;;;;;;;;;;;;0.28;100.00;98446.20;1823934;78;20078;-70
2022/02/08 01:54:54;;;;;;;;;;;;;;;0.28;100.00;98448.09;1823904;78;21158;-70
2022/02/08 01:57:20;;;;;;;;;;;;;;;0.25;100.00;98452.69;1781965;80;20115;-70
2022/02/08 01:59:47;;;;;;;;;;;;;;;0.24;100.00;98458.62;1823808;78;20086;-70
2022/02/08 02:02:13;;;;;;;;;;;;;;;0.23;100.00;98463.77;1823899;78;20119;-72
2022/02/08 02:04:40;;;;;;;;;;;;;;;0.20;100.00;98468.36;1823841;78;20082;-72
2022/02/08 02:07:07;;;;;;;;;;;;;;;0.20;100.00;98474.30;1824120;78;21783;-72
2022/02/08 02:09:34;;;;;;;;;;;;;;;0.22;100.00;98480.23;1782040;80;20824;-72
2022/02/08 02:12:06;;;;;;;;;;;;;;;0.23;100.00;98479.15;1823016;78;20499;-72
2022/02/08 02:14:37;;;;;;;;;;;;;;;0.21;100.00;98484.82;1782240;80;20113;-71
2022/02/08 02:17:03;;;;;;;;;;;;;;;0.18;100.00;98488.06;1823985;78;20117;-74
2022/02/08 02:19:30;;;;;;;;;;;;;;;0.20;100.00;98494.54;1823797;78;21204;-73
2022/02/08 02:21:58;;;;;;;;;;;;;;;0.19;100.00;98499.67;1823786;78;20467;-74
2022/02/08 02:24:24;;;;;;;;;;;;;;;0.17;100.00;98505.88;1792261;78;20082;-74
2022/02/08 02:26:51;;;;;;;;;;;;;;;0.16;100.00;98505.61;1823943;78;20639;-74
2022/02/08 02:29:21;;;;;;;;;;;;;;;0.17;100.00;98508.05;1777182;80;20081;-74
2022/02/08 02:31:47;;;;;;;;;;;;;;;0.19;100.00;98507.77;1815847;79;21172;-74
2022/02/08 02:34:17;;;;;;;;;;;;;;;0.21;100.00;98506.95;1815605;79;20150;-74
2022/02/08 02:36:44;;;;;;;;;;;;;;;0.22;100.00;98512.63;1815783;79;20114;-74
2022/02/08 02:39:11;;;;;;;;;;;;;;;0.22;100.00;98513.43;1815724;79;20094;-74
2022/02/08 02:41:39;;;;;;;;;;;;;;;0.24;100.00;98516.66;1795499;78;20118;-75
2022/02/08 02:44:07;;;;;;;;;;;;;;;0.26;100.00;98515.85;1815752;79;21179;-73
2022/02/08 02:46:33;;;;;;;;;;;;;;;0.27;100.00;98518.01;1815727;79;20118;-73
2022/02/08 02:48:59;;;;;;;;;;;;;;;0.28;100.00;98523.14;1815714;79;20457;-73
2022/02/08 02:51:26;;;;;;;;;;;;;;;0.31;100.00;98528.53;1815797;79;22150;-73
2022/02/08 02:53:53;;;;;;;;;;;;;;;0.32;100.00;98543.11;1815855;79;20121;-73
2022/02/08 02:56:19;;;;;;;;;;;;;;;0.32;100.00;98547.69;1816022;79;21849;-73
2022/02/08 02:58:46;;;;;;;;;;;;;;;0.28;100.00;98543.92;1815686;79;20163;-72
2022/02/08 03:19:58;;;;;;;;;;;;;;;0.30;100.00;98571.45;1815789;79;20078;-71
2022/02/08 03:22:25;;;;;;;;;;;;;;;0.28;100.00;98579.83;1815995;79;21196;-70
2022/02/08 03:24:52;;;;;;;;;;;;;;;0.30;100.00;98580.91;1815754;79;20094;-70
2022/02/08 03:27:18;;;;;;;;;;;;;;;0.29;100.00;98583.33;1795479;79;20151;-70
2022/02/08 03:29:45;;;;;;;;;;;;;;;0.28;100.00;98587.92;1821275;78;20698;-71
2022/02/08 03:32:14;;;;;;;;;;;;;;;0.28;100.00;98592.52;1823841;78;20101;-72
2022/02/08 03:34:41;;;;;;;;;;;;;;;0.31;100.00;98601.42;1785071;80;21162;-72
2022/02/08 03:37:08;;;;;;;;;;;;;;;0.32;100.00;98607.89;1753930;82;20123;-72
2022/02/08 03:39:42;;;;;;;;;;;;;;;0.31;100.00;98613.02;1809407;79;20138;-72
2022/02/08 03:42:21;;;;;;;;;;;;;;;0.27;100.00;98610.59;1809231;79;20110;-72
2022/02/08 03:44:47;;;;;;;;;;;;;;;0.28;100.00;98617.62;1809518;79;20130;-73
2022/02/08 03:47:16;;;;;;;;;;;;;;;0.25;100.00;98625.45;1809516;79;21150;-72
2022/02/08 03:49:43;;;;;;;;;;;;;;;0.24;100.00;98624.64;1809824;79;20445;-72
2022/02/08 03:52:10;;;;;;;;;;;;;;;0.25;100.00;98626.26;1809484;79;20078;-72
2022/02/08 03:54:38;;;;;;;;;;;;;;;0.27;100.00;98631.38;1809537;79;20636;-72
2022/02/08 03:57:08;;;;;;;;;;;;;;;0.26;100.00;98639.22;1809549;79;20118;-72
2022/02/08 03:59:34;;;;;;;;;;;;;;;0.25;100.00;98649.73;1809526;79;22456;-73
2022/02/08 04:02:19;;;;;;;;;;;;;;;0.23;100.00;98656.76;1809488;79;20165;-72
2022/02/08 04:07:19;;;;;;;;;;;;;;;0.22;100.00;98665.13;1809751;78;20106;-70
2022/02/08 04:09:43;;;;;;;;;;;;;;;0.22;100.00;98674.58;1809527;79;20122;-69
2022/02/08 04:12:19;;;;;;;;;;;;;;;0.20;100.00;98671.33;1809673;79;21179;-72
2022/02/08 04:17:30;;;;;;;;;;;;;;;0.19;100.00;98696.70;1799572;78;20092;-72
2022/02/08 04:20:03;;;;;;;;;;;;;;;0.17;100.00;98696.97;1774815;80;20089;-72
2022/02/08 04:36:24;;;;;;;;;;;;;;;0.13;100.00;98725.58;1771095;80;20093;-72
2022/02/08 04:38:58;;;;;;;;;;;;;;;0.14;100.00;98734.48;1767396;81;22005;-71
2022/02/08 04:41:17;;;;;;;;;;;;;;;0.13;100.00;98734.22;1768609;81;20081;-72
2022/02/08 04:48:54;;;;;;;;;;;;;;;0.13;100.00;98732.86;1770967;80;20460;-71
2022/02/08 04:51:38;;;;;;;;;;;;;;;0.14;100.00;98729.09;1769881;81;21144;-72
2022/02/08 04:54:08;;;;;;;;;;;;;;;0.15;100.00;98736.11;1770259;81;20107;-72
2022/02/08 04:56:43;;;;;;;;;;;;;;;0.16;100.00;98742.59;1769689;81;20081;-72
2022/02/08 05:34:48;;;;;;;;;;;;;;;-0.08;100.00;98803.00;1704179;84;20171;-72
2022/02/08 05:43:03;;;;;;;;;;;;;;;-0.13;100.00;98829.14;1694903;84;20114;-74
2022/02/08 05:44:44;;;;;;;;;;;;;;;-0.15;100.00;98838.03;1685301;84;21792;-72
2022/02/08 05:47:09;;;;;;;;;;;;;;;-0.16;100.00;98840.46;1690959;82;20126;-73
2022/02/08 05:49:42;;;;;;;;;;;;;;;-0.16;100.00;98842.63;1696026;83;20087;-74
2022/02/08 05:54:42;;;;;;;;;;;;;;;-0.12;100.00;98851.00;1699798;83;20102;-73
2022/02/08 05:57:08;;;;;;;;;;;;;;;-0.10;100.00;98848.31;1723910;82;21040;-71
2022/02/08 05:59:35;;;;;;;;;;;;;;;-0.07;100.00;98842.39;1723341;82;20084;-72
2022/02/08 06:02:01;;;;;;;;;;;;;;;-0.04;100.00;98838.36;1720670;83;20181;-77
2022/02/08 06:04:47;;;;;;;;;;;;;;;-0.05;100.00;98841.59;1701902;83;20119;-73
2022/02/08 06:07:17;;;;;;;;;;;;;;;-0.03;100.00;98846.19;1696626;83;20459;-72
2022/02/08 06:09:43;;;;;;;;;;;;;;;0.00;100.00;98846.98;1707622;83;20078;-69
2022/02/08 06:12:10;;;;;;;;;;;;;;;0.02;100.00;98860.21;1694824;84;20473;-72
2022/02/08 06:14:41;;;;;;;;;;;;;;;0.04;100.00;98854.55;1694814;84;20445;-70
2022/02/08 06:17:06;;;;;;;;;;;;;;;0.05;100.00;98851.59;1708240;83;20116;-72
2022/02/08 06:19:32;;;;;;;;;;;;;;;0.08;100.00;98861.86;1698659;82;20098;-70
2022/02/08 06:21:58;;;;;;;;;;;;;;;0.10;100.00;98862.41;1700614;82;21151;-69
2022/02/08 06:24:24;;;;;;;;;;;;;;;0.08;100.00;98874.00;1717293;83;20410;-69
2022/02/08 06:26:51;;;;;;;;;;;;;;;0.07;100.00;98880.47;1717316;83;20144;-70
2022/02/08 06:29:22;;;;;;;;;;;;;;;0.08;100.00;98876.70;1721563;82;20936;-70
2022/02/08 06:31:46;;;;;;;;;;;;;;;0.10;100.00;98890.74;1724389;81;20101;-70
2022/02/08 06:34:19;;;;;;;;;;;;;;;0.12;100.00;98901.27;1749772;81;21142;-71
2022/02/08 06:36:45;;;;;;;;;;;;;;;0.16;100.00;98903.19;1663482;85;20127;-71
2022/02/08 06:39:11;;;;;;;;;;;;;;;0.19;100.00;98909.94;1702729;84;20104;-69
2022/02/08 06:41:38;;;;;;;;;;;;;;;0.21;100.00;98906.45;1692172;84;20086;-70
2022/02/08 06:44:04;;;;;;;;;;;;;;;0.22;100.00;98904.02;1679329;85;20094;-70
2022/02/08 06:46:34;;;;;;;;;;;;;;;0.21;100.00;98910.49;1679463;85;21169;-79
2022/02/08 06:49:02;;;;;;;;;;;;;;;0.21;100.00;98913.19;1679298;85;20114;-79
2022/02/08 06:51:29;;;;;;;;;;;;;;;0.23;100.00;98915.91;1678940;85;20120;-81
2022/02/08 06:53:55;;;;;;;;;;;;;;;0.27;100.00;98931.03;1677691;85;20437;-82
2022/02/08 06:56:21;;;;;;;;;;;;;;;0.29;100.00;98933.75;1682517;85;20118;-79
2022/02/08 06:58:52;;;;;;;;;;;;;;;0.33;100.00;98932.69;1685971;85;21107;-69
2022/02/08 07:01:18;;;;;;;;;;;;;;;0.38;100.00;98940.80;1702342;83;20095;-69
2022/02/08 07:03:46;;;;;;;;;;;;;;;0.39;99.71;98938.92;1681799;84;20417;-71
2022/02/08 07:06:14;;;;;;;;;;;;;;;0.37;99.12;98940.53;1700767;83;20147;-71
2022/02/08 07:08:42;;;;;;;;;;;;;;;0.33;98.45;98949.70;1705405;82;20099;-73
2022/02/08 07:11:15;;;;;;;;;;;;;;;0.33;97.93;98958.34;1704754;82;20189;-69
2022/02/08 07:13:39;;;;;;;;;;;;;;;0.34;98.38;98968.06;1707805;82;20127;-68
2022/02/08 07:16:06;;;;;;;;;;;;;;;0.39;98.18;98975.38;1711479;82;20115;-71
2022/02/08 07:18:33;;;;;;;;;;;;;;;0.43;97.11;98973.23;1706711;83;20143;-71
2022/02/08 07:20:59;;;;;;;;;;;;;;;0.48;97.35;98977.31;1706678;82;20117;-70
2022/02/08 07:23:27;;;;;;;;;;;;;;;0.51;96.17;98978.67;1705443;82;20137;-70
2022/02/08 07:25:54;;;;;;;;;;;;;;;0.51;94.18;98985.42;1701676;84;20128;-74
2022/02/08 07:28:21;;;;;;;;;;;;;;;0.51;94.93;98987.58;1688227;83;20436;-73
2022/02/08 07:30:48;;;;;;;;;;;;;;;0.53;93.79;98984.08;1675647;85;20074;-71
2022/02/08 07:33:14;;;;;;;;;;;;;;;0.54;93.08;98988.41;1674790;85;20103;-67
2022/02/08 07:35:50;;;;;;;;;;;;;;;0.53;91.46;98995.42;1676976;85;21122;-67
2022/02/08 07:38:21;;;;;;;;;;;;;;;0.54;92.54;98997.86;1665144;85;38707;-73
2022/02/08 07:41:35;;;;;;;;;;;;;;;0.57;92.78;99005.44;1676157;85;20194;-69
2022/02/08 07:43:10;;;;;;;;;;;;;;;0.59;90.76;99005.14;1685925;84;20188;-68
2022/02/08 07:45:38;;;;;;;;;;;;;;;0.58;90.29;99009.73;1698133;83;20127;-68
2022/02/08 07:48:05;;;;;;;;;;;;;;;0.64;90.80;99013.27;1735436;82;21120;-69
2022/02/08 07:50:37;;;;;;;;;;;;;;;0.70;90.04;99024.91;1746533;81;20604;-71
2022/02/08 07:52:59;;;;;;;;;;;;;;;0.77;89.65;99022.23;1741401;81;20087;-73
2022/02/08 07:55:25;;;;;;;;;;;;;;;0.82;87.22;99032.25;1734837;82;20094;-68
2022/02/08 07:57:52;;;;;;;;;;;;;;;0.82;87.94;99024.96;1763776;81;20424;-69
2022/02/08 08:00:19;;;;;;;;;;;;;;;0.86;85.89;99028.76;1765306;80;21093;-69
2022/02/08 08:02:45;;;;;;;;;;;;;;;0.87;85.61;99035.79;1765522;80;20175;-68
2022/02/08 08:05:12;;;;;;;;;;;;;;;0.88;84.14;99033.90;1765271;81;20415;-69
2022/02/08 08:07:42;;;;;;;;;;;;;;;0.89;84.72;99049.03;1765085;81;20130;-69
2022/02/08 08:10:11;;;;;;;;;;;;;;;0.90;84.70;99047.96;1765201;80;20144;-68
2022/02/08 08:12:46;;;;;;;;;;;;;;;0.92;82.09;99057.97;1765215;81;20109;-73
2022/02/08 08:15:23;;;;;;;;;;;;;;;0.91;82.38;99053.64;1763737;81;20093;-69
2022/02/08 08:17:54;;;;;;;;;;;;;;;0.96;82.77;99061.77;1761951;81;20097;-70
2022/02/08 08:20:10;;;;;;;;;;;;;;;0.99;79.71;99059.89;1761260;81;20854;-71
2022/02/08 08:22:36;;;;;;;;;;;;;;;1.02;79.33;99070.71;1766578;81;20113;-68
2022/02/08 08:25:05;;;;;;;;;;;;;;;0.99;78.02;99076.92;1770330;81;21142;-70
2022/02/08 08:27:31;;;;;;;;;;;;;;;1.01;78.50;99084.77;1770493;80;20081;-70
2022/02/08 08:29:59;;;;;;;;;;;;;;;1.06;79.57;99082.62;1758177;80;20429;-69
2022/02/08 08:32:25;;;;;;;;;;;;;;;1.11;78.82;99092.91;1739503;82;20095;-70
2022/02/08 08:34:52;;;;;;;;;;;;;;;1.15;77.87;99093.20;1739839;82;20103;-68
2022/02/08 08:37:19;;;;;;;;;;;;;;;1.20;78.20;99100.76;1739854;82;23053;-69
2022/02/08 08:39:48;;;;;;;;;;;;;;;1.26;77.56;99096.99;1739797;82;20096;-70
2022/02/08 08:42:40;;;;;;;;;;;;;;;1.35;75.70;99099.19;1751922;81;20113;-73
2022/02/08 08:50:53;;;;;;;;;;;;;;;1.55;74.46;99104.64;1719166;83;21140;-66
2022/02/08 08:52:54;;;;;;;;;;;;;;;1.62;73.44;99114.67;1717098;83;20100;-69
2022/02/08 08:55:20;;;;;;;;;;;;;;;1.69;73.52;99126.05;1723695;83;20218;-68
2022/02/08 08:57:46;;;;;;;;;;;;;;;1.73;72.04;99125.79;1723676;83;20431;-68
2022/02/08 09:00:13;;;;;;;;;;;;;;;1.76;72.25;99125.22;1724035;83;20411;-67
2022/02/08 09:02:40;;;;;;;;;;;;;;;1.79;71.86;99136.86;1723627;83;21157;-63
2022/02/08 09:05:11;;;;;;;;;;;;;;;1.78;70.72;99138.48;1723675;83;20084;-68
2022/02/08 09:07:37;;;;;;;;;;;;;;;1.76;71.19;99140.11;1739609;81;20073;-72
2022/02/08 09:10:04;;;;;;;;;;;;;;;1.74;71.16;99146.33;1737324;81;20112;-71
2022/02/08 09:13:18;;;;;;;;;;;;;;;1.72;71.48;99146.35;1764381;81;20139;-70
2022/02/08 09:30:43;;;;;;;;;;;;;;;1.51;71.56;99154.95;1739858;82;20115;-67
2022/02/08 09:33:07;;;;;;;;;;;;;;;1.49;70.62;99149.00;1744023;81;20434;-67
2022/02/08 09:35:36;;;;;;;;;;;;;;;1.45;71.69;99159.53;1744212;81;20095;-68
2022/02/08 09:38:03;;;;;;;;;;;;;;;1.48;72.97;99152.23;1747354;81;20095;-66
2022/02/08 09:40:29;;;;;;;;;;;;;;;1.55;71.95;99151.98;1750172;81;21135;-65
2022/02/08 09:42:58;;;;;;;;;;;;;;;1.60;71.90;99153.36;1739828;82;20435;-65
2022/02/08 09:45:24;;;;;;;;;;;;;;;1.66;71.51;99153.64;1739863;82;20426;-67
2022/02/08 09:48:13;;;;;;;;;;;;;;;1.68;72.21;99152.84;1739690;82;20087;-66
2022/02/08 09:50:37;;;;;;;;;;;;;;;1.75;71.89;99143.89;1738739;82;20086;-67
2022/02/08 09:53:06;;;;;;;;;;;;;;;1.73;71.37;99151.50;1739891;82;20729;-66
2022/02/08 09:55:38;;;;;;;;;;;;;;;1.71;72.31;99148.25;1701655;84;20160;-66
2022/02/08 09:58:05;;;;;;;;;;;;;;;1.74;74.11;99148.22;1714906;83;20199;-68
2022/02/08 10:00:33;;;;;;;;;;;;;;;1.76;73.02;99149.58;1713746;83;20817;-66
2022/02/08 10:03:13;;;;;;;;;;;;;;;1.76;73.22;99152.28;1691620;84;20124;-66
2022/02/08 10:05:49;;;;;;;;;;;;;;;1.76;74.06;99145.52;1691926;84;21116;-66
2022/02/08 10:08:15;;;;;;;;;;;;;;;1.73;72.92;99139.32;1690557;84;20466;-70
2022/02/08 10:10:43;;;;;;;;;;;;;;;1.69;73.75;99139.58;1688735;83;20152;-67
2022/02/08 10:14:18;;;;;;;;;;;;;;;1.62;73.21;99137.13;1691412;84;20135;-69
2022/02/08 10:21:44;;;;;;;;;;;;;;;1.60;75.05;99128.47;1672673;83;20085;-68
2022/02/08 10:24:09;;;;;;;;;;;;;;;1.55;74.40;99141.17;1682235;83;20109;-68
2022/02/08 10:26:52;;;;;;;;;;;;;;;1.49;75.04;99130.88;1668917;83;20113;-67
2022/02/08 10:29:38;;;;;;;;;;;;;;;1.47;76.43;99134.92;1688407;84;20184;-70
2022/02/08 10:40:00;;;;;;;;;;;;;;;1.55;74.11;99123.58;1679228;85;20177;-66
2022/02/08 10:42:28;;;;;;;;;;;;;;;1.57;76.26;99127.65;1678286;85;20145;-67
2022/02/08 10:44:56;;;;;;;;;;;;;;;1.65;75.36;99129.02;1679157;85;21195;-67
2022/02/08 10:47:36;;;;;;;;;;;;;;;1.67;75.53;99132.27;1679527;85;20134;-66
2022/02/08 10:50:03;;;;;;;;;;;;;;;1.69;74.61;99127.95;1678336;85;20148;-68
2022/02/08 10:52:30;;;;;;;;;;;;;;;1.67;74.85;99124.70;1679299;84;20148;-67
2022/02/08 10:55:04;;;;;;;;;;;;;;;1.69;74.65;99132.81;1679266;84;20446;-75
2022/02/08 10:57:32;;;;;;;;;;;;;;;1.72;73.83;99132.28;1701500;84;23251;-68
2022/02/08 10:59:59;;;;;;;;;;;;;;;1.72;71.45;99130.93;1708387;83;20078;-68
2022/02/08 11:02:33;;;;;;;;;;;;;;;1.70;71.09;99129.57;1707560;83;20193;-68
2022/02/08 11:05:06;;;;;;;;;;;;;;;1.69;72.27;99133.36;1708272;83;20468;-70
2022/02/08 11:07:45;;;;;;;;;;;;;;;1.67;71.80;99135.52;1699659;83;20092;-71
2022/02/08 11:10:08;;;;;;;;;;;;;;;1.63;71.27;99140.66;1690212;83;21083;-75
2022/02/08 11:15:26;;;;;;;;;;;;;;;1.68;72.99;99137.95;1655649;85;20419;-73
2022/02/08 11:18:10;;;;;;;;;;;;;;;1.74;71.28;99135.50;1679200;85;20400;-71
2022/02/08 11:20:26;;;;;;;;;;;;;;;1.73;70.39;99137.97;1676733;85;20454;-68
2022/02/08 11:25:28;;;;;;;;;;;;;;;1.80;71.01;99135.78;1679783;85;20148;-68
2022/02/08 11:27:57;;;;;;;;;;;;;;;1.89;69.97;99134.17;1679873;85;20116;-73
2022/02/08 11:30:48;;;;;;;;;;;;;;;1.91;68.81;99135.27;1636714;85;20152;-75
2022/02/08 11:33:37;;;;;;;;;;;;;;;1.90;68.71;99130.92;1679391;85;20076;-69
2022/02/08 11:50:27;;;;;;;;;;;;;;;2.08;68.61;99145.84;1623900;88;21194;-68
2022/02/08 12:00:39;;;;;;;;;;;;;;;2.06;66.99;99152.06;1685560;83;20141;-67
2022/02/08 12:03:45;;;;;;;;;;;;;;;2.08;66.61;99155.31;1680570;84;21182;-68
2022/02/08 12:08:13;;;;;;;;;;;;;;;2.05;65.25;99158.02;1658665;84;20100;-68
2022/02/08 12:10:59;;;;;;;;;;;;;;;2.03;66.74;99159.38;1680430;85;20104;-77
2022/02/08 12:54:46;;;;;;;;;;;;;;;1.58;69.85;99202.32;1693130;84;20260;-74
2022/02/08 12:59:52;;;;;;;;;;;;;;;1.55;71.42;99209.61;1666738;83;20146;-71
2022/02/08 13:05:43;;;;;;;;;;;;;;;1.58;71.48;99212.33;1692312;83;20149;-69
2022/02/08 14:01:56;;;;;;;;;;;;;;;1.18;69.16;99221.88;1692673;84;20128;-68
2022/02/08 14:07:28;;;;;;;;;;;;;;;1.11;67.86;99227.27;1687301;84;20082;-67
2022/02/08 14:09:59;;;;;;;;;;;;;;;1.08;68.28;99237.25;1698871;84;20139;-68
2022/02/08 14:23:09;;;;;;;;;;;;;;;1.02;69.52;99232.89;1715905;83;20137;-66
2022/02/08 14:33:33;;;;;;;;;;;;;;;0.99;69.52;99231.53;1684544;83;20593;-68
2022/02/08 14:35:58;;;;;;;;;;;;;;;0.98;69.45;99232.06;1679646;84;20138;-68
2022/02/08 14:57:32;;;;;;;;;;;;;;;0.96;70.80;99232.05;1683675;84;20472;-69
2022/02/08 15:06:09;;;;;;;;;;;;;;;0.86;73.12;99231.44;1664039;85;20130;-71
2022/02/08 15:10:18;;;;;;;;;;;;;;;0.87;72.44;99229.55;1644225;86;21233;-72
2022/02/08 15:12:41;;;;;;;;;;;;;;;0.86;72.45;99229.27;1650675;86;20105;-68
2022/02/08 15:15:20;;;;;;;;;;;;;;;0.82;72.28;99229.52;1650148;86;20162;-65
2022/02/08 15:17:38;;;;;;;;;;;;;;;0.76;72.99;99225.96;1650810;86;20221;-65
2022/02/08 15:20:07;;;;;;;;;;;;;;;0.76;74.05;99219.20;1650265;85;20133;-66
2022/02/08 15:22:34;;;;;;;;;;;;;;;0.74;73.45;99228.11;1651300;87;21168;-66
2022/02/08 15:25:01;;;;;;;;;;;;;;;0.69;73.24;99225.37;1647299;85;20168;-68
2022/02/08 15:27:28;;;;;;;;;;;;;;;0.63;73.30;99241.26;1620822;86;20423;-67
2022/02/08 15:29:56;;;;;;;;;;;;;;;0.58;74.27;99240.68;1665009;86;20148;-67
2022/02/08 15:32:22;;;;;;;;;;;;;;;0.54;73.87;99242.84;1664872;86;20176;-70
2022/02/08 15:34:50;;;;;;;;;;;;;;;0.47;74.26;99244.40;1664836;86;22021;-68
2022/02/08 15:37:16;;;;;;;;;;;;;;;0.45;75.54;99249.24;1650105;86;20418;-69
2022/02/08 15:39:44;;;;;;;;;;;;;;;0.45;75.07;99246.54;1648345;87;20169;-67
2022/02/08 15:42:11;;;;;;;;;;;;;;;0.43;75.10;99255.44;1625785;87;20420;-67
2022/02/08 15:44:44;;;;;;;;;;;;;;;0.43;76.18;99255.44;1645560;87;20117;-66
2022/02/08 15:47:11;;;;;;;;;;;;;;;0.45;76.22;99257.34;1642277;84;21199;-68
2022/02/08 15:49:42;;;;;;;;;;;;;;;0.43;75.96;99250.56;1720060;82;20132;-68
2022/02/08 15:52:16;;;;;;;;;;;;;;;0.40;76.28;99250.55;1672923;84;20124;-68
2022/02/08 15:54:42;;;;;;;;;;;;;;;0.39;76.45;99248.10;1645422;86;20141;-69
2022/02/08 16:05:14;;;;;;;;;;;;;;;0.20;76.55;99247.66;1704690;82;20113;-71
2022/02/08 16:07:41;;;;;;;;;;;;;;;0.15;77.50;99243.02;1716209;83;20613;-70
2022/02/08 16:10:14;;;;;;;;;;;;;;;0.09;77.42;99248.08;1639036;84;20205;-68
2022/02/08 16:13:09;;;;;;;;;;;;;;;0.04;77.44;99241.81;1718330;83;21169;-68
2022/02/08 16:15:30;;;;;;;;;;;;;;;-0.05;77.54;99242.84;1714520;83;20156;-68
2022/02/08 16:18:08;;;;;;;;;;;;;;;-0.12;78.10;99241.69;1681038;84;20083;-68
2022/02/08 16:21:01;;;;;;;;;;;;;;;-0.19;78.49;99242.41;1706341;83;20112;-65
2022/02/08 16:26:06;;;;;;;;;;;;;;;-0.23;79.66;99234.55;1674037;84;21239;-69
2022/02/08 16:55:16;;;;;;;;;;;;;;;-0.06;81.46;99250.65;1690706;84;20133;-72
2022/02/08 16:57:41;;;;;;;;;;;;;;;-0.05;81.52;99254.45;1686234;84;20171;-72
2022/02/08 17:00:06;;;;;;;;;;;;;;;-0.01;82.17;99256.10;1688201;84;20169;-68
2022/02/08 17:02:33;;;;;;;;;;;;;;;0.00;81.95;99257.17;1688844;84;20476;-69
2022/02/08 17:05:01;;;;;;;;;;;;;;;0.03;81.78;99259.89;1668800;83;21087;-71
2022/02/08 17:07:38;;;;;;;;;;;;;;;0.04;81.81;99257.48;1689775;84;20104;-73
2022/02/08 17:10:02;;;;;;;;;;;;;;;0.04;82.53;99258.02;1687567;84;20180;-74
2022/02/08 17:12:38;;;;;;;;;;;;;;;0.06;82.45;99253.98;1689749;83;20202;-75
2022/02/08 17:47:44;;;;;;;;;;;;;;;0.16;83.96;99260.84;1731723;82;20171;-70
2022/02/08 17:50:13;;;;;;;;;;;;;;;0.17;83.79;99263.83;1744052;81;20197;-71
2022/02/08 17:52:41;;;;;;;;;;;;;;;0.17;83.88;99267.88;1761752;81;20208;-70
2022/02/08 17:55:09;;;;;;;;;;;;;;;0.17;84.21;99268.41;1753454;81;20168;-72
2022/02/08 17:57:35;;;;;;;;;;;;;;;0.16;84.61;99262.19;1747250;81;21835;-72
2022/02/08 18:00:03;;;;;;;;;;;;;;;0.17;85.11;99261.66;1745313;81;20524;-70
2022/02/08 18:02:31;;;;;;;;;;;;;;;0.17;85.21;99258.42;1746111;81;20193;-65
2022/02/08 18:05:01;;;;;;;;;;;;;;;0.17;85.44;99249.52;1744017;81;20446;-66
2022/02/08 18:07:27;;;;;;;;;;;;;;;0.18;85.71;99254.66;1747999;81;20144;-67
2022/02/08 18:09:56;;;;;;;;;;;;;;;0.18;86.24;99249.25;1745701;81;21065;-66
2022/02/08 18:12:26;;;;;;;;;;;;;;;0.18;86.41;99246.55;1750137;81;20140;-70
2022/02/08 18:14:58;;;;;;;;;;;;;;;0.18;86.88;99246.55;1761134;81;20109;-68
2022/02/08 18:17:36;;;;;;;;;;;;;;;0.19;87.61;99248.72;1762048;81;20344;-67
2022/02/08 18:56:18;;;;;;;;;;;;;;;0.28;91.27;99225.59;1746020;82;20093;-70
2022/02/08 19:09:48;;;;;;;;;;;;;;;0.31;91.78;99215.63;1746756;81;20096;-71
2022/02/08 19:12:20;;;;;;;;;;;;;;;0.32;91.81;99217.26;1744121;81;20093;-70
2022/02/08 19:22:31;;;;;;;;;;;;;;;0.37;92.06;99208.39;1717399;82;20083;-70
2022/02/08 19:25:04;;;;;;;;;;;;;;;0.38;92.92;99204.08;1715571;83;20368;-69
2022/02/08 19:27:36;;;;;;;;;;;;;;;0.41;92.50;99191.95;1707874;80;21138;-67
2022/02/08 19:30:04;;;;;;;;;;;;;;;0.44;92.12;99197.65;1702716;84;21099;-69
2022/02/08 19:32:30;;;;;;;;;;;;;;;0.42;91.93;99191.69;1684200;84;20442;-70
2022/02/08 19:34:56;;;;;;;;;;;;;;;0.44;91.75;99195.48;1702801;84;20195;-71
2022/02/08 19:37:24;;;;;;;;;;;;;;;0.41;92.05;99179.27;1697915;84;20196;-68
2022/02/08 19:39:53;;;;;;;;;;;;;;;0.39;91.79;99179.24;1701650;83;20608;-69
2022/02/08 19:42:19;;;;;;;;;;;;;;;0.37;91.62;99186.25;1711709;83;22371;-70
2022/02/08 19:44:54;;;;;;;;;;;;;;;0.35;91.57;99182.99;1709753;82;20437;-70
2022/02/08 19:47:14;;;;;;;;;;;;;;;0.33;91.94;99184.59;1730784;82;20138;-67
2022/02/08 19:49:40;;;;;;;;;;;;;;;0.33;91.85;99186.48;1731740;82;20134;-68
2022/02/08 19:52:07;;;;;;;;;;;;;;;0.30;91.75;99182.41;1732133;83;20433;-69
2022/02/08 19:54:40;;;;;;;;;;;;;;;0.28;91.64;99183.74;1731748;82;21048;-66
2022/02/08 19:57:09;;;;;;;;;;;;;;;0.24;91.69;99174.53;1730933;82;20188;-67
2022/02/08 19:59:36;;;;;;;;;;;;;;;0.21;91.94;99181.80;1731084;82;20130;-68
2022/02/08 20:02:04;;;;;;;;;;;;;;;0.16;92.01;99178.52;1732116;82;20197;-68
2022/02/08 20:04:33;;;;;;;;;;;;;;;0.11;92.03;99176.30;1732260;83;20158;-68
2022/02/08 20:06:58;;;;;;;;;;;;;;;0.05;92.15;99167.34;1713072;83;21143;-73
2022/02/08 20:09:25;;;;;;;;;;;;;;;0.00;92.37;99170.81;1703289;84;20089;-69
2022/02/08 20:11:52;;;;;;;;;;;;;;;-0.05;92.37;99174.02;1703662;84;20556;-67
2022/02/08 20:14:21;;;;;;;;;;;;;;;-0.13;92.76;99171.25;1681605;83;20653;-73
2022/02/08 20:16:53;;;;;;;;;;;;;;;-0.18;92.90;99177.95;1690293;84;20207;-70
2022/02/08 20:19:20;;;;;;;;;;;;;;;-0.23;93.50;99172.50;1657219;84;21151;-69